createdAt,value
2018-03-08T00:00:04.042Z,99452.53
2018-03-08T00:02:32.836Z,99453.63
2018-03-08T00:05:01.472Z,99452.83
2018-03-08T00:07:30.108Z,99455.53
2018-03-08T00:09:58.583Z,99456.07
2018-03-08T00:12:27.109Z,99452.00
2018-03-08T00:14:55.700Z,99458.35
2018-03-08T00:17:24.494Z,99459.59
2018-03-08T00:19:52.984Z,99460.53
2018-03-08T00:22:21.633Z,99461.61
2018-03-08T00:24:50.073Z,99457.30
2018-03-08T00:27:18.663Z,99460.66
2018-03-08T00:29:47.580Z,99460.53
2018-03-08T00:32:16.075Z,99459.02
2018-03-08T00:34:44.645Z,99462.69
2018-03-08T00:37:13.417Z,99458.22
2018-03-08T00:39:42.069Z,99461.47
2018-03-08T00:42:10.595Z,99455.63
2018-03-08T00:44:39.166Z,99453.89
2018-03-08T00:47:07.953Z,99461.04
2018-03-08T00:49:36.624Z,99452.37
2018-03-08T00:52:05.556Z,99456.42
2018-03-08T00:54:34.065Z,99457.37
2018-03-08T00:57:03.333Z,99459.41
2018-03-08T00:59:33.254Z,99466.31
2018-03-08T01:02:01.727Z,99462.66
2018-03-08T01:04:30.199Z,99471.16
2018-03-08T01:06:58.801Z,99470.77
2018-03-08T01:09:27.281Z,99465.34
2018-03-08T01:11:55.771Z,99458.30
2018-03-08T01:14:33.087Z,99450.98
2018-03-08T01:17:01.831Z,99457.20
2018-03-08T01:19:30.456Z,99449.34
2018-03-08T01:22:02.045Z,99449.36
2018-03-08T01:24:30.692Z,99451.12
2018-03-08T01:26:59.444Z,99451.94
2018-03-08T01:29:28.899Z,99451.55
2018-03-08T01:31:57.561Z,99452.11
2018-03-08T01:34:25.978Z,99451.95
2018-03-08T01:36:54.425Z,99450.87
2018-03-08T01:39:22.957Z,99447.48
2018-03-08T01:41:51.511Z,99444.67
2018-03-08T01:44:19.985Z,99438.70
2018-03-08T01:46:48.475Z,99451.42
2018-03-08T01:49:16.862Z,99448.06
2018-03-08T01:51:55.303Z,99454.56
2018-03-08T01:54:23.998Z,99449.44
2018-03-08T01:56:52.542Z,99455.62
2018-03-08T01:59:21.993Z,99453.59
2018-03-08T02:01:50.445Z,99457.13
2018-03-08T02:04:19.049Z,99452.53
2018-03-08T02:06:47.785Z,99447.53
2018-03-08T02:09:16.372Z,99451.44
2018-03-08T02:11:44.925Z,99448.08
2018-03-08T02:14:13.358Z,99451.84
2018-03-08T02:16:41.947Z,99454.02
2018-03-08T02:19:10.562Z,99455.36
2018-03-08T02:21:39.289Z,99454.13
2018-03-08T02:24:07.688Z,99453.58
2018-03-08T02:26:36.155Z,99458.72
2018-03-08T02:29:04.599Z,99459.40
2018-03-08T02:31:33.174Z,99455.21
2018-03-08T02:34:01.635Z,99458.34
2018-03-08T02:36:30.457Z,99453.61
2018-03-08T02:38:59.281Z,99461.59
2018-03-08T02:41:27.774Z,99465.78
2018-03-08T02:43:56.365Z,99471.45
2018-03-08T02:46:24.893Z,99466.96
2018-03-08T02:48:53.406Z,99470.21
2018-03-08T02:51:22.277Z,99475.20
2018-03-08T02:53:50.952Z,99483.09
2018-03-08T02:56:19.465Z,99485.64
2018-03-08T02:58:48.170Z,99485.80
2018-03-08T03:01:16.735Z,99477.82
2018-03-08T03:03:45.238Z,99478.78
2018-03-08T03:06:14.434Z,99483.77
2018-03-08T03:08:43.157Z,99487.17
2018-03-08T03:11:11.753Z,99496.75
2018-03-08T03:13:40.229Z,99484.17
2018-03-08T03:16:08.773Z,99485.27
2018-03-08T03:18:37.643Z,99486.03
2018-03-08T03:21:06.189Z,99490.66
2018-03-08T03:23:35.009Z,99491.35
2018-03-08T03:26:03.646Z,99490.67
2018-03-08T03:28:32.145Z,99489.18
2018-03-08T03:31:00.833Z,99487.84
2018-03-08T03:33:29.500Z,99480.39
2018-03-08T03:35:58.075Z,99482.16
2018-03-08T03:38:26.584Z,99472.23
2018-03-08T03:40:55.007Z,99484.42
2018-03-08T03:43:23.853Z,99489.00
2018-03-08T03:45:52.303Z,99490.75
2018-03-08T03:48:20.790Z,99483.63
2018-03-08T03:50:49.328Z,99483.05
2018-03-08T03:53:18.096Z,99494.27
2018-03-08T03:55:46.524Z,99491.70
2018-03-08T03:58:15.337Z,99496.55
2018-03-08T04:00:43.796Z,99507.72
2018-03-08T04:03:12.238Z,99505.56
2018-03-08T04:05:41.288Z,99505.29
2018-03-08T04:08:09.746Z,99500.66
2018-03-08T04:10:38.397Z,99500.75
2018-03-08T04:13:07.671Z,99506.10
2018-03-08T04:15:36.105Z,99501.52
2018-03-08T04:18:04.677Z,99508.27
2018-03-08T04:20:33.325Z,99512.59
2018-03-08T04:23:01.890Z,99511.09
2018-03-08T04:25:30.588Z,99507.16
2018-03-08T04:27:59.151Z,99511.03
2018-03-08T04:30:28.276Z,99513.33
2018-03-08T04:32:57.541Z,99516.05
2018-03-08T04:35:26.166Z,99512.30
2018-03-08T04:37:55.110Z,99510.19
2018-03-08T04:40:23.694Z,99513.52
2018-03-08T04:42:52.236Z,99513.87
2018-03-08T04:45:20.946Z,99516.27
2018-03-08T04:47:49.342Z,99521.31
2018-03-08T04:50:17.990Z,99515.49
2018-03-08T04:52:46.625Z,99514.94
2018-03-08T04:55:15.085Z,99529.87
2018-03-08T04:57:43.543Z,99530.68
2018-03-08T05:03:07.611Z,99523.49
2018-03-08T05:05:36.159Z,99529.42
2018-03-08T05:08:04.717Z,99539.59
2018-03-08T05:10:33.286Z,99543.98
2018-03-08T05:13:01.731Z,99544.92
2018-03-08T05:15:30.404Z,99550.14
2018-03-08T05:17:58.888Z,99543.97
2018-03-08T05:20:27.608Z,99537.34
2018-03-08T05:22:56.084Z,99536.68
2018-03-08T05:25:25.328Z,99536.97
2018-03-08T05:27:54.496Z,99538.87
2018-03-08T05:30:23.331Z,99541.31
2018-03-08T05:32:51.807Z,99539.83
2018-03-08T05:35:20.282Z,99543.59
2018-03-08T05:37:48.974Z,99543.62
2018-03-08T05:40:17.704Z,99536.58
2018-03-08T05:42:46.358Z,99546.33
2018-03-08T05:45:14.833Z,99551.76
2018-03-08T05:47:43.266Z,99549.84
2018-03-08T05:50:11.792Z,99549.43
2018-03-08T05:52:40.515Z,99553.11
2018-03-08T05:55:09.187Z,99560.81
2018-03-08T05:57:37.834Z,99566.49
2018-03-08T06:00:06.323Z,99566.23
2018-03-08T06:02:34.790Z,99566.36
2018-03-08T06:05:03.942Z,99568.00
2018-03-08T06:07:32.595Z,99564.89
2018-03-08T06:10:01.424Z,99573.13
2018-03-08T06:12:31.682Z,99580.29
2018-03-08T06:15:00.481Z,99584.92
2018-03-08T06:17:36.003Z,99581.91
2018-03-08T06:20:04.659Z,99585.86
2018-03-08T06:22:33.716Z,99595.58
2018-03-08T06:25:02.175Z,99587.33
2018-03-08T06:27:31.897Z,99593.27
2018-03-08T06:30:00.578Z,99599.66
2018-03-08T06:32:29.602Z,99603.16
2018-03-08T06:34:58.338Z,99613.21
2018-03-08T06:37:27.120Z,99620.78
2018-03-08T06:39:55.661Z,99621.34
2018-03-08T06:42:24.529Z,99629.59
2018-03-08T06:44:53.398Z,99632.16
2018-03-08T06:47:22.993Z,99623.06
2018-03-08T06:49:51.693Z,99633.11
2018-03-08T06:52:20.244Z,99634.18
2018-03-08T06:54:48.970Z,99637.16
2018-03-08T06:57:18.221Z,99642.71
2018-03-08T06:59:48.272Z,99645.55
2018-03-08T07:02:17.316Z,99650.16
2018-03-08T07:04:46.121Z,99650.70
2018-03-08T07:07:14.693Z,99651.61
2018-03-08T07:09:45.089Z,99654.50
2018-03-08T07:12:13.981Z,99654.34
2018-03-08T07:14:43.231Z,99657.44
2018-03-08T07:17:13.062Z,99664.50
2018-03-08T07:19:41.741Z,99663.02
2018-03-08T07:22:10.310Z,99666.80
2018-03-08T07:24:38.999Z,99673.70
2018-03-08T07:27:07.561Z,99679.80
2018-03-08T07:29:36.226Z,99674.94
2018-03-08T07:32:05.131Z,99686.31
2018-03-08T07:34:37.628Z,99687.63
2018-03-08T07:37:07.028Z,99685.02
2018-03-08T07:39:35.920Z,99693.70
2018-03-08T07:42:04.772Z,99693.14
2018-03-08T07:44:34.986Z,99693.39
2018-03-08T07:47:05.428Z,99698.38
2018-03-08T07:49:35.031Z,99698.64
2018-03-08T07:52:03.836Z,99695.61
2018-03-08T07:54:37.372Z,99701.86
2018-03-08T07:57:06.122Z,99697.73
2018-03-08T07:59:34.752Z,99699.85
2018-03-08T08:02:07.789Z,99705.28
2018-03-08T08:06:51.272Z,99710.28
2018-03-08T08:09:20.146Z,99711.96
2018-03-08T08:11:51.396Z,99715.58
2018-03-08T08:14:20.172Z,99724.34
2018-03-08T08:16:49.112Z,99725.57
2018-03-08T08:19:18.405Z,99733.02
2018-03-08T08:21:47.067Z,99729.89
2018-03-08T08:24:15.926Z,99736.00
2018-03-08T08:26:44.873Z,99726.74
2018-03-08T08:29:13.736Z,99741.89
2018-03-08T08:31:42.649Z,99740.80
2018-03-08T08:34:12.440Z,99744.76
2018-03-08T08:36:44.682Z,99758.67
2018-03-08T08:39:13.980Z,99756.23
2018-03-08T08:41:44.068Z,99756.13
2018-03-08T08:44:13.086Z,99754.06
2018-03-08T08:46:42.481Z,99762.88
2018-03-08T08:49:11.357Z,99760.53
2018-03-08T08:51:40.673Z,99765.83
2018-03-08T08:54:09.345Z,99773.88
2018-03-08T08:56:38.326Z,99776.92
2018-03-08T08:59:07.303Z,99780.67
2018-03-08T09:01:36.208Z,99786.13
2018-03-08T09:04:05.311Z,99781.26
2018-03-08T09:06:34.477Z,99786.70
2018-03-08T09:09:04.190Z,99797.84
2018-03-08T09:11:32.793Z,99803.52
2018-03-08T09:14:03.854Z,99798.28
2018-03-08T09:16:32.878Z,99807.91
2018-03-08T09:19:02.227Z,99810.77
2018-03-08T09:21:31.710Z,99809.27
2018-03-08T09:24:00.594Z,99818.24
2018-03-08T09:26:29.281Z,99816.47
2018-03-08T09:28:57.970Z,99818.77
2018-03-08T09:31:27.886Z,99825.41
2018-03-08T09:33:57.578Z,99827.87
2018-03-08T09:36:27.264Z,99824.61
2018-03-08T09:38:56.769Z,99827.46
2018-03-08T09:41:28.317Z,99832.50
2018-03-08T09:43:57.248Z,99833.30
2018-03-08T09:46:25.833Z,99835.36
2018-03-08T09:48:55.011Z,99841.32
2018-03-08T09:51:24.581Z,99841.97
2018-03-08T09:53:58.340Z,99844.16
2018-03-08T09:56:29.054Z,99835.74
2018-03-08T09:58:58.581Z,99847.66
2018-03-08T10:01:29.925Z,99844.44
2018-03-08T10:04:01.729Z,99837.38
2018-03-08T10:06:31.757Z,99842.27
2018-03-08T10:09:02.202Z,99850.80
2018-03-08T10:11:34.217Z,99858.39
2018-03-08T10:14:08.725Z,99849.06
2018-03-08T10:16:39.192Z,99851.09
2018-03-08T10:19:10.957Z,99860.31
2018-03-08T10:21:48.908Z,99866.14
2018-03-08T10:24:20.241Z,99861.09
2018-03-08T10:26:51.384Z,99862.33
2018-03-08T10:29:25.993Z,99868.14
2018-03-08T10:31:58.513Z,99865.05
2018-03-08T10:34:29.552Z,99861.63
2018-03-08T10:37:01.906Z,99868.27
2018-03-08T10:39:31.817Z,99868.43
2018-03-08T10:42:03.988Z,99871.39
2018-03-08T10:44:35.068Z,99868.95
2018-03-08T10:47:06.207Z,99874.48
2018-03-08T10:49:35.685Z,99877.08
2018-03-08T10:52:08.537Z,99883.95
2018-03-08T10:54:39.357Z,99886.53
2018-03-08T10:57:11.533Z,99884.00
2018-03-08T10:59:41.871Z,99895.34
2018-03-08T11:02:17.226Z,99886.05
2018-03-08T11:04:55.586Z,99887.22
2018-03-08T11:07:27.677Z,99894.42
2018-03-08T11:09:57.724Z,99896.19
2018-03-08T11:12:28.355Z,99893.44
2018-03-08T11:14:59.376Z,99894.56
2018-03-08T11:17:32.891Z,99893.88
2018-03-08T11:20:03.358Z,99888.88
2018-03-08T11:22:34.693Z,99891.18
2018-03-08T11:25:09.229Z,99888.19
2018-03-08T11:27:44.548Z,99892.08
2018-03-08T11:30:14.185Z,99888.04
2018-03-08T11:32:48.208Z,99892.70
2018-03-08T11:35:22.342Z,99883.02
2018-03-08T11:37:56.293Z,99883.52
2018-03-08T11:40:36.065Z,99880.29
2018-03-08T11:43:08.808Z,99882.34
2018-03-08T11:45:39.276Z,99879.02
2018-03-08T11:48:11.548Z,99883.78
2018-03-08T11:50:47.919Z,99883.61
2018-03-08T11:53:34.576Z,99880.11
2018-03-08T11:56:11.393Z,99883.43
2018-03-08T11:58:53.956Z,99875.38
2018-03-08T12:01:30.171Z,99871.47
2018-03-08T12:04:10.166Z,99873.88
2018-03-08T12:06:50.370Z,99879.43
2018-03-08T12:09:22.342Z,99865.61
2018-03-08T12:11:59.797Z,99878.48
2018-03-08T12:14:42.116Z,99875.58
2018-03-08T12:17:42.482Z,99881.17
2018-03-08T12:20:51.434Z,99884.98
2018-03-08T12:26:17.955Z,99874.88
2018-03-08T12:28:59.458Z,99879.05
2018-03-08T12:31:47.337Z,99883.63
2018-03-08T12:34:37.681Z,99876.81
2018-03-08T12:37:11.085Z,99883.17
2018-03-08T12:39:52.594Z,99880.45
2018-03-08T12:42:24.983Z,99869.53
2018-03-08T12:45:04.710Z,99869.12
2018-03-08T12:47:43.460Z,99874.83
2018-03-08T12:51:16.886Z,99866.76
2018-03-08T12:53:52.476Z,99879.73
2018-03-08T12:56:31.614Z,99872.77
2018-03-08T12:59:04.845Z,99874.59
2018-03-08T13:01:44.683Z,99865.12
2018-03-08T13:04:22.855Z,99863.96
2018-03-08T13:07:00.286Z,99865.08
2018-03-08T13:09:39.062Z,99872.31
2018-03-08T13:12:10.731Z,99859.53
2018-03-08T13:14:55.523Z,99868.19
2018-03-08T13:17:39.349Z,99872.05
2018-03-08T13:20:14.369Z,99860.17
2018-03-08T13:22:56.507Z,99873.70
2018-03-08T13:28:27.188Z,99871.78
2018-03-08T13:30:56.589Z,99852.77
2018-03-08T13:33:33.822Z,99855.52
2018-03-08T13:36:17.609Z,99870.83
2018-03-08T13:38:51.761Z,99862.27
2018-03-08T13:41:22.827Z,99862.29
2018-03-08T13:43:53.785Z,99855.00
2018-03-08T13:46:27.778Z,99845.22
2018-03-08T13:48:59.198Z,99851.20
2018-03-08T13:51:39.021Z,99846.94
2018-03-08T13:54:18.789Z,99847.33
2018-03-08T13:57:03.150Z,99844.38
2018-03-08T13:59:35.940Z,99845.23
2018-03-08T14:02:07.086Z,99843.42
2018-03-08T14:04:42.959Z,99840.91
2018-03-08T14:07:16.794Z,99841.72
2018-03-08T14:09:49.355Z,99841.77
2018-03-08T14:12:27.218Z,99834.52
2018-03-08T14:15:04.636Z,99833.59
2018-03-08T14:20:20.093Z,99824.34
2018-03-08T14:22:57.185Z,99830.97
2018-03-08T14:25:39.082Z,99841.86
2018-03-08T14:28:19.371Z,99838.57
2018-03-08T14:30:56.412Z,99835.23
2018-03-08T14:33:45.489Z,99830.95
2018-03-08T14:36:17.159Z,99829.42
2018-03-08T14:41:33.854Z,99822.11
2018-03-08T14:44:09.054Z,99826.88
2018-03-08T14:46:43.188Z,99824.38
2018-03-08T14:49:21.783Z,99817.11
2018-03-08T14:51:56.500Z,99818.75
2018-03-08T14:54:29.703Z,99819.61
2018-03-08T14:57:06.535Z,99818.77
2018-03-08T14:59:36.371Z,99821.13
2018-03-08T15:02:23.244Z,99816.69
2018-03-08T15:05:02.379Z,99815.48
2018-03-08T15:07:38.639Z,99813.66
2018-03-08T15:10:15.916Z,99807.99
2018-03-08T15:12:51.799Z,99806.42
2018-03-08T15:15:24.586Z,99808.09
2018-03-08T15:21:24.011Z,99807.38
2018-03-08T15:23:57.897Z,99799.44
2018-03-08T15:30:22.347Z,99799.93
2018-03-08T15:33:04.018Z,99798.78
2018-03-08T15:38:58.121Z,99795.05
2018-03-08T15:41:39.461Z,99786.50
2018-03-08T15:44:16.503Z,99786.41
2018-03-08T15:46:54.959Z,99792.73
2018-03-08T15:49:31.671Z,99795.72
2018-03-08T15:52:11.111Z,99793.75
2018-03-08T15:55:12.131Z,99792.52
2018-03-08T15:57:50.471Z,99789.23
2018-03-08T16:00:33.852Z,99786.15
2018-03-08T16:03:09.750Z,99788.23
2018-03-08T16:05:54.841Z,99794.09
2018-03-08T16:08:43.008Z,99789.67
2018-03-08T16:11:25.346Z,99786.81
2018-03-08T16:14:06.321Z,99796.30
2018-03-08T16:19:22.529Z,99789.33
2018-03-08T22:08:53.146Z,99645.61
2018-03-08T22:14:13.111Z,99624.03
2018-03-08T22:16:50.004Z,99617.33
2018-03-08T22:19:22.195Z,99622.49
2018-03-08T22:21:58.736Z,99612.72
2018-03-08T22:24:33.823Z,99604.30
2018-03-08T22:27:05.552Z,99615.98
2018-03-08T22:29:34.981Z,99621.17
2018-03-08T22:32:05.550Z,99627.20
2018-03-08T22:34:37.137Z,99627.37
2018-03-08T22:37:08.210Z,99655.10
2018-03-08T22:39:37.954Z,99652.45
2018-03-08T22:42:08.888Z,99661.52
2018-03-08T22:44:39.239Z,99666.89
2018-03-08T22:47:09.810Z,99664.23
2018-03-08T22:49:43.579Z,99683.13
2018-03-08T22:52:12.419Z,99686.45
2018-03-08T22:54:41.986Z,99702.23
2018-03-08T22:57:12.142Z,99709.22
2018-03-08T22:59:40.721Z,99713.20
2018-03-08T23:02:12.420Z,99711.06
2018-03-08T23:04:41.834Z,99718.53
2018-03-08T23:07:10.714Z,99715.17
2018-03-08T23:09:40.342Z,99713.70
2018-03-08T23:12:10.801Z,99719.54
2018-03-08T23:14:39.416Z,99728.52
2018-03-08T23:17:10.579Z,99733.45
2018-03-08T23:19:40.712Z,99736.67
2018-03-08T23:22:09.422Z,99738.44
2018-03-08T23:24:38.201Z,99746.75
2018-03-08T23:27:06.754Z,99718.92
2018-03-08T23:29:35.371Z,99719.19
2018-03-08T23:32:04.168Z,99717.30
2018-03-08T23:34:34.687Z,99702.28
2018-03-08T23:37:04.665Z,99687.36
2018-03-08T23:39:33.483Z,99683.57
2018-03-08T23:42:04.145Z,99686.46
2018-03-08T23:44:33.542Z,99688.50
2018-03-08T23:47:02.183Z,99702.90
2018-03-08T23:49:30.806Z,99706.02
2018-03-08T23:51:59.792Z,99708.59
2018-03-08T23:54:29.081Z,99708.05
2018-03-08T23:56:58.694Z,99709.95
2018-03-08T23:59:27.680Z,99717.11
